Terminal Aerodrome Forecast
Issued by NWS Blacksburg, VA

Current Version | Previous Version | Text Only | Print | Product List | Glossary Off
Versions: 1 2 3 4 5 6 7 8 9 10 11 12 13 14 15 16 17 18 19 20 21 22 23 24 25 26 27 28 29 30 31 32 33 34 35 36 37 38 39

000
FTUS41 KRNK 302112 AAA
TAFBLF
TAF AMD
KBLF 302112Z 3021/0118 VRB05KT P6SM BKN015 OVC070
     FM010000 14009KT 5SM -SHRA BR OVC015
     FM010500 16009KT 4SM SHRA BR OVC009
     FM011000 18008KT 4SM -SHRA BR OVC015
     FM011600 22008KT P6SM -SHRA OVC035=

USA.gov is the U.S. government's official web portal to all federal, state and local government web resources and services.